Time;durP1;ratioP1;P1;durP2;ratioP2;P2;SDS_P1;SDS_P2;PMS_P1;PMS_P2;Temp;Humidity;BMP_temperature;BMP_pressure;BME280_temperature;BME280_humidity;BME280_pressure;Samples;Min_cycle;Max_cycle;Signal;HPM_P1;HPM_P2
2022/02/01 00:00:43;;;;;;;5.57;1.30;;;4.50;99.90;;;;;;5062513;28;20036;-78
2022/02/01 00:03:12;;;;;;;6.50;1.33;;;4.60;99.90;;;;;;5075209;28;20025;-76
2022/02/01 00:06:10;;;;;;;4.85;1.35;;;4.50;99.90;;;;;;5074659;28;20093;-76
2022/02/01 00:14:01;;;;;;;4.05;1.17;;;4.60;99.90;;;;;;5074594;28;20071;-77
2022/02/01 00:37:53;;;;;;;4.18;1.20;;;4.90;99.90;;;;;;5079394;28;20021;-79
2022/02/01 00:40:19;;;;;;;1.90;0.80;;;4.90;99.90;;;;;;5078808;28;20029;-80
2022/02/01 00:42:45;;;;;;;6.05;1.00;;;5.00;99.90;;;;;;5079687;28;20040;-78
2022/02/01 00:45:10;;;;;;;2.58;0.60;;;5.00;99.90;;;;;;5079016;28;20013;-77
2022/02/01 00:47:36;;;;;;;6.78;0.90;;;5.10;99.90;;;;;;5079391;28;20021;-79
2022/02/01 00:50:02;;;;;;;4.38;1.08;;;5.80;99.90;;;;;;5068846;28;20509;-78
2022/02/01 00:52:29;;;;;;;3.28;0.70;;;6.00;99.90;;;;;;5056326;28;20163;-78
2022/02/01 00:54:54;;;;;;;6.25;1.10;;;5.00;99.90;;;;;;5055491;28;20029;-77
2022/02/01 00:57:20;;;;;;;1.98;0.60;;;4.90;99.90;;;;;;5054797;28;20029;-78
2022/02/01 00:59:46;;;;;;;1.90;0.80;;;5.40;99.90;;;;;;5053316;28;20029;-77
2022/02/01 01:02:11;;;;;;;6.32;0.90;;;6.40;99.90;;;;;;5054722;28;20040;-77
2022/02/01 01:04:37;;;;;;;4.25;0.80;;;5.10;99.90;;;;;;5054505;28;20043;-77
2022/02/01 01:07:03;;;;;;;3.85;0.52;;;5.00;99.90;;;;;;5054854;28;20037;-77
2022/02/01 01:09:28;;;;;;;3.38;0.85;;;5.10;99.90;;;;;;5062756;28;20090;-77
2022/02/01 01:11:56;;;;;;;2.20;0.50;;;5.10;99.90;;;;;;5055609;28;20053;-77
2022/02/01 01:44:51;;;;;;;7.53;1.23;;;5.00;99.90;;;;;;5053467;28;20116;-77
2022/02/01 01:53:10;;;;;;;7.60;1.55;;;5.00;99.90;;;;;;5051104;28;20148;-76
2022/02/01 01:55:34;;;;;;;8.07;1.90;;;5.10;99.90;;;;;;5052032;28;20032;-77
2022/02/01 01:58:00;;;;;;;12.23;2.33;;;5.10;99.90;;;;;;5052621;28;20036;-77
2022/02/01 02:01:11;;;;;;;7.30;1.30;;;5.10;99.90;;;;;;5052241;28;20025;-77
2022/02/01 02:03:11;;;;;;;9.75;2.08;;;5.10;99.90;;;;;;5042871;28;20094;-80
2022/02/01 02:05:37;;;;;;;6.50;1.42;;;6.00;99.90;;;;;;5055547;28;20108;-79
2022/02/01 02:08:04;;;;;;;6.45;0.95;;;5.10;99.90;;;;;;5058197;28;20478;-79
2022/02/01 02:10:34;;;;;;;11.02;1.95;;;5.00;99.90;;;;;;5058204;28;20080;-79
2022/02/01 02:15:58;;;;;;;10.85;2.72;;;5.00;99.90;;;;;;5038189;28;20091;-79
2022/02/01 02:18:25;;;;;;;13.77;2.17;;;5.00;99.90;;;;;;5046322;28;20021;-78
2022/02/01 02:20:51;;;;;;;9.30;2.13;;;5.00;99.90;;;;;;5057506;28;20025;-78
2022/02/01 02:23:17;;;;;;;9.80;2.20;;;6.60;99.90;;;;;;5056758;28;20029;-78
2022/02/01 02:25:43;;;;;;;7.80;1.20;;;5.00;99.90;;;;;;5056253;28;20094;-79
2022/02/01 02:28:13;;;;;;;12.05;1.95;;;5.00;99.90;;;;;;5056569;28;20074;-79
2022/02/01 02:30:39;;;;;;;8.88;1.52;;;5.00;99.90;;;;;;5061757;28;20025;-78
2022/02/01 02:33:08;;;;;;;11.70;2.03;;;5.00;99.90;;;;;;5062805;28;20535;-78
2022/02/01 02:35:39;;;;;;;10.32;1.63;;;6.70;99.90;;;;;;5058808;28;20078;-79
2022/02/01 02:38:11;;;;;;;8.15;1.58;;;5.00;99.90;;;;;;5057908;28;20686;-80
2022/02/01 02:45:59;;;;;;;10.13;2.20;;;5.00;99.90;;;;;;5052876;28;20059;-76
2022/02/01 02:48:24;;;;;;;4.90;1.67;;;5.00;99.90;;;;;;5052861;28;20525;-78
2022/02/01 02:50:50;;;;;;;9.73;1.60;;;5.20;99.90;;;;;;5054564;28;20036;-77
2022/02/01 02:53:17;;;;;;;14.40;1.65;;;4.90;99.90;;;;;;5055247;28;20036;-77
2022/02/01 02:55:42;;;;;;;8.35;1.58;;;5.90;99.90;;;;;;5054948;28;20389;-77
2022/02/01 02:58:08;;;;;;;14.45;1.92;;;6.30;99.90;;;;;;5060111;28;20017;-77
2022/02/01 03:00:34;;;;;;;14.27;2.17;;;5.00;99.90;;;;;;5058079;28;20495;-76
2022/02/01 03:03:00;;;;;;;9.93;1.80;;;5.00;99.90;;;;;;5055371;28;20025;-77
2022/02/01 03:05:26;;;;;;;7.60;1.33;;;5.00;99.90;;;;;;5053254;28;20025;-77
2022/02/01 03:07:51;;;;;;;13.93;2.08;;;5.00;99.90;;;;;;5053937;28;20028;-76
2022/02/01 03:10:17;;;;;;;7.63;1.48;;;5.10;99.90;;;;;;5054201;28;20021;-77
2022/02/01 03:15:37;;;;;;;9.68;1.65;;;4.90;99.90;;;;;;5055189;28;20025;-78
2022/02/01 03:20:47;;;;;;;10.65;1.65;;;6.10;99.90;;;;;;5036581;28;20513;-77
2022/02/01 03:23:12;;;;;;;5.55;2.30;;;4.90;99.90;;;;;;5054102;28;20033;-77
2022/02/01 03:25:38;;;;;;;12.35;2.33;;;6.20;99.90;;;;;;5053982;28;20029;-76
2022/02/01 03:28:04;;;;;;;8.93;1.38;;;4.90;99.90;;;;;;5054321;28;20525;-78
2022/02/01 03:30:29;;;;;;;11.15;2.05;;;4.90;99.90;;;;;;5060208;28;20056;-77
2022/02/01 03:32:55;;;;;;;11.85;2.13;;;4.80;99.90;;;;;;5056852;28;20036;-77
2022/02/01 03:35:20;;;;;;;13.27;2.65;;;4.80;99.90;;;;;;5062800;28;20084;-76
2022/02/01 03:37:46;;;;;;;8.90;1.65;;;4.80;99.90;;;;;;5060333;28;20035;-77
2022/02/01 03:40:18;;;;;;;9.50;1.63;;;4.60;99.90;;;;;;5049083;28;20028;-78
2022/02/01 03:42:44;;;;;;;8.15;1.60;;;6.00;99.90;;;;;;5048223;28;20620;-77
2022/02/01 03:45:10;;;;;;;10.80;2.22;;;4.60;99.90;;;;;;5049931;28;20112;-76
2022/02/01 03:47:36;;;;;;;12.88;1.80;;;6.50;99.90;;;;;;5050791;28;20026;-78
2022/02/01 03:50:07;;;;;;;15.30;1.73;;;4.50;99.90;;;;;;5054062;28;20508;-76
2022/02/01 03:52:33;;;;;;;9.07;1.90;;;4.60;99.90;;;;;;5057894;28;20035;-75
2022/02/01 03:54:58;;;;;;;14.23;1.98;;;4.50;99.90;;;;;;5058113;28;20025;-75
2022/02/01 03:57:24;;;;;;;14.77;2.15;;;4.60;99.90;;;;;;5056793;28;20032;-76
2022/02/01 03:59:49;;;;;;;10.18;1.95;;;4.60;99.90;;;;;;5057034;28;20082;-75
2022/02/01 04:02:16;;;;;;;9.05;1.52;;;4.40;99.90;;;;;;5057267;28;20390;-76
2022/02/01 04:04:42;;;;;;;11.25;2.10;;;5.70;99.90;;;;;;5059594;28;20037;-74
2022/02/01 04:07:09;;;;;;;14.00;1.95;;;4.40;99.90;;;;;;5055209;28;20044;-77
2022/02/01 04:09:35;;;;;;;14.68;2.05;;;4.70;99.90;;;;;;5052878;28;20053;-78
2022/02/01 04:12:04;;;;;;;9.38;1.70;;;4.40;99.90;;;;;;5055307;28;20029;-77
2022/02/01 04:14:32;;;;;;;16.50;1.65;;;4.40;99.90;;;;;;5055472;28;20498;-76
2022/02/01 04:17:00;;;;;;;9.77;2.50;;;4.30;99.90;;;;;;5053040;28;20524;-78
2022/02/01 04:19:29;;;;;;;12.90;2.15;;;4.40;99.90;;;;;;5052962;28;20463;-75
2022/02/01 04:22:00;;;;;;;12.48;1.52;;;4.20;99.90;;;;;;5054853;28;20429;-78
2022/02/01 04:24:27;;;;;;;10.37;2.07;;;4.20;99.90;;;;;;5053414;28;20052;-76
2022/02/01 04:26:53;;;;;;;11.18;1.60;;;4.40;99.90;;;;;;5051559;28;20505;-77
2022/02/01 04:29:18;;;;;;;18.35;2.17;;;4.30;99.90;;;;;;5050755;28;20025;-77
2022/02/01 04:31:44;;;;;;;15.02;2.20;;;4.20;99.90;;;;;;5052283;28;20055;-77
2022/02/01 04:34:10;;;;;;;15.57;2.78;;;4.30;99.90;;;;;;5052928;28;20048;-75
2022/02/01 04:36:36;;;;;;;8.25;1.42;;;4.20;99.90;;;;;;5054180;28;20029;-78
2022/02/01 04:39:03;;;;;;;14.32;3.67;;;4.20;99.90;;;;;;5053657;28;20100;-78
2022/02/01 04:41:29;;;;;;;9.57;1.50;;;5.80;99.90;;;;;;5057545;28;20072;-76
2022/02/01 04:43:57;;;;;;;12.93;1.90;;;4.30;99.90;;;;;;5040033;28;20033;-77
2022/02/01 04:46:23;;;;;;;11.80;1.63;;;4.10;99.90;;;;;;5057289;28;20025;-77
2022/02/01 04:48:48;;;;;;;13.98;2.33;;;4.10;99.90;;;;;;5056293;28;20029;-78
2022/02/01 04:51:19;;;;;;;15.10;2.42;;;4.10;99.90;;;;;;5057041;28;20088;-78
2022/02/01 04:53:45;;;;;;;11.38;1.50;;;4.10;99.90;;;;;;5055873;28;20033;-78
2022/02/01 04:56:13;;;;;;;9.05;2.00;;;5.40;99.90;;;;;;5056754;28;20032;-77
2022/02/01 04:58:39;;;;;;;9.30;2.05;;;6.10;99.90;;;;;;5054525;28;20074;-78
2022/02/01 05:01:04;;;;;;;11.50;1.90;;;4.10;99.90;;;;;;5057049;28;20037;-77
2022/02/01 05:03:30;;;;;;;14.50;2.78;;;4.10;99.90;;;;;;5058852;28;20045;-77
2022/02/01 05:05:56;;;;;;;15.13;2.33;;;4.10;99.90;;;;;;5061837;28;20374;-75
2022/02/01 05:08:24;;;;;;;9.43;1.85;;;3.80;99.90;;;;;;5058437;28;20025;-74
2022/02/01 05:10:51;;;;;;;10.77;1.75;;;4.10;99.90;;;;;;5059754;28;20032;-78
2022/02/01 05:16:06;;;;;;;12.85;2.00;;;4.00;99.90;;;;;;5053798;28;20652;-79
2022/02/01 05:18:48;;;;;;;9.02;1.90;;;4.00;99.90;;;;;;5055993;28;20020;-78
2022/02/01 05:21:23;;;;;;;15.02;1.63;;;4.00;99.90;;;;;;5056313;28;20027;-77
2022/02/01 05:23:50;;;;;;;13.70;2.00;;;3.90;99.90;;;;;;5055313;28;20124;-79
2022/02/01 05:26:21;;;;;;;10.45;1.83;;;3.90;99.90;;;;;;5056873;28;20053;-78
2022/02/01 05:28:47;;;;;;;24.30;2.85;;;3.90;99.90;;;;;;5055346;28;20021;-78
2022/02/01 05:31:12;;;;;;;13.15;2.63;;;3.90;99.90;;;;;;5055952;28;20040;-77
2022/02/01 05:33:38;;;;;;;10.38;1.60;;;3.90;99.90;;;;;;5056155;28;20123;-78
2022/02/01 05:36:05;;;;;;;13.88;2.15;;;3.80;99.90;;;;;;5055145;28;20021;-76
2022/02/01 05:38:32;;;;;;;15.00;2.38;;;3.90;99.90;;;;;;5057097;28;20032;-77
2022/02/01 05:40:58;;;;;;;12.68;1.98;;;4.00;99.90;;;;;;5057546;28;20036;-77
2022/02/01 05:43:26;;;;;;;10.63;1.98;;;4.00;99.90;;;;;;5057627;28;20078;-78
2022/02/01 05:45:55;;;;;;;20.85;2.75;;;3.90;99.90;;;;;;5055259;28;20032;-78
2022/02/01 05:48:21;;;;;;;14.73;2.15;;;4.00;99.90;;;;;;5061352;28;20037;-76
2022/02/01 05:50:49;;;;;;;11.63;2.40;;;4.00;99.90;;;;;;5059631;28;20506;-77
2022/02/01 05:53:15;;;;;;;22.23;3.28;;;3.90;99.90;;;;;;5062402;28;20021;-77
2022/02/01 05:55:41;;;;;;;12.52;1.95;;;4.00;99.90;;;;;;5061737;28;20033;-75
2022/02/01 05:58:07;;;;;;;11.15;1.98;;;4.00;99.90;;;;;;5054529;28;20397;-76
2022/02/01 06:00:33;;;;;;;14.00;3.85;;;3.90;99.90;;;;;;5054170;28;20051;-78
2022/02/01 06:03:00;;;;;;;13.45;1.88;;;3.90;99.90;;;;;;5055612;28;20056;-78
2022/02/01 06:05:27;;;;;;;11.65;2.42;;;3.90;99.90;;;;;;5055350;28;20029;-77
2022/02/01 06:07:52;;;;;;;12.63;1.77;;;3.90;99.90;;;;;;5053884;28;20107;-77
2022/02/01 06:10:18;;;;;;;9.18;1.52;;;3.90;99.90;;;;;;5054643;28;20068;-76
2022/02/01 06:12:46;;;;;;;15.82;2.08;;;3.90;99.90;;;;;;5056169;28;20049;-78
2022/02/01 06:15:14;;;;;;;21.83;2.28;;;4.00;99.90;;;;;;5057357;28;20025;-78
2022/02/01 06:17:40;;;;;;;10.80;2.00;;;4.70;99.90;;;;;;5059748;28;20029;-77
2022/02/01 06:20:07;;;;;;;9.63;2.22;;;4.10;99.90;;;;;;5064879;28;20112;-78
2022/02/01 06:22:33;;;;;;;12.43;1.90;;;4.00;99.90;;;;;;5059474;28;20036;-77
2022/02/01 06:24:59;;;;;;;13.90;2.22;;;4.00;99.90;;;;;;5054547;28;20029;-77
2022/02/01 06:27:25;;;;;;;13.40;1.77;;;4.00;99.90;;;;;;5054172;28;20025;-76
2022/02/01 06:29:51;;;;;;;10.50;2.08;;;3.90;99.90;;;;;;5056018;28;20436;-78
2022/02/01 06:32:17;;;;;;;7.95;1.67;;;4.00;99.90;;;;;;5054437;28;20059;-77
2022/02/01 06:34:43;;;;;;;13.50;1.88;;;4.10;99.90;;;;;;5052885;28;20033;-77
2022/02/01 06:37:09;;;;;;;16.42;1.98;;;4.00;99.90;;;;;;5055638;28;20112;-77
2022/02/01 06:39:34;;;;;;;14.75;1.95;;;4.00;99.90;;;;;;5053090;28;20029;-78
2022/02/01 06:42:01;;;;;;;10.00;2.13;;;4.00;99.90;;;;;;5054256;28;20037;-77
2022/02/01 06:44:27;;;;;;;14.95;1.92;;;4.00;99.90;;;;;;5054535;28;20509;-78
2022/02/01 06:46:53;;;;;;;8.15;2.03;;;4.00;99.90;;;;;;5058115;28;20161;-78
2022/02/01 06:49:18;;;;;;;7.13;1.20;;;3.90;99.90;;;;;;5056507;28;20381;-76
2022/02/01 06:51:45;;;;;;;9.40;1.75;;;5.10;99.90;;;;;;5055328;28;20029;-78
2022/02/01 06:54:11;;;;;;;8.60;1.38;;;3.90;99.90;;;;;;5055927;28;20025;-77
2022/02/01 06:56:37;;;;;;;9.80;1.45;;;3.90;99.90;;;;;;5055195;28;20040;-78
2022/02/01 06:59:04;;;;;;;9.85;2.00;;;3.80;99.90;;;;;;5050683;28;20047;-78
2022/02/01 07:01:30;;;;;;;14.95;2.15;;;3.90;99.90;;;;;;5053803;28;20032;-78
2022/02/01 07:03:56;;;;;;;10.68;1.75;;;3.90;99.90;;;;;;5053164;28;20083;-78
2022/02/01 07:06:23;;;;;;;9.70;2.17;;;3.80;99.90;;;;;;5052470;28;20071;-78
2022/02/01 07:08:50;;;;;;;11.35;1.88;;;4.50;99.90;;;;;;5052382;28;20017;-78
2022/02/01 07:11:20;;;;;;;8.55;1.58;;;4.90;99.90;;;;;;5053051;28;20393;-78
2022/02/01 07:13:47;;;;;;;9.88;1.98;;;3.80;99.90;;;;;;5054225;28;20025;-77
2022/02/01 07:16:14;;;;;;;9.55;1.48;;;3.80;99.90;;;;;;5053929;28;20021;-78
2022/02/01 07:18:40;;;;;;;6.47;1.67;;;3.80;99.90;;;;;;5053366;28;20017;-77
2022/02/01 07:21:06;;;;;;;12.55;2.20;;;3.90;99.90;;;;;;5054891;28;20087;-78
2022/02/01 07:23:33;;;;;;;12.57;1.73;;;4.60;99.90;;;;;;5054137;28;20515;-78
2022/02/01 07:25:59;;;;;;;11.98;1.33;;;3.90;99.90;;;;;;5055704;28;20043;-79
2022/02/01 07:28:27;;;;;;;11.15;1.80;;;3.80;99.90;;;;;;5055668;28;20047;-79
2022/02/01 07:30:53;;;;;;;12.50;2.22;;;4.70;99.90;;;;;;5055454;28;20036;-80
2022/02/01 07:33:19;;;;;;;6.90;1.33;;;3.90;99.90;;;;;;5055749;28;20029;-79
2022/02/01 07:35:48;;;;;;;10.80;1.40;;;3.90;99.90;;;;;;5054823;28;20090;-78
2022/02/01 07:38:18;;;;;;;11.02;1.75;;;3.80;99.90;;;;;;5056233;28;20051;-78
2022/02/01 07:40:48;;;;;;;7.70;1.38;;;3.80;99.90;;;;;;5059156;28;20064;-78
2022/02/01 07:43:14;;;;;;;8.57;1.35;;;3.80;99.90;;;;;;5059799;28;20048;-78
2022/02/01 07:45:42;;;;;;;8.05;1.77;;;3.90;99.90;;;;;;5059407;28;20091;-78
2022/02/01 07:48:08;;;;;;;7.10;1.60;;;3.80;99.90;;;;;;5060701;28;20021;-80
2022/02/01 07:50:36;;;;;;;8.73;1.60;;;3.90;99.90;;;;;;5059388;28;20037;-78
2022/02/01 07:53:02;;;;;;;8.80;1.67;;;3.80;99.90;;;;;;5059007;28;20090;-76
2022/02/01 07:55:28;;;;;;;12.82;2.08;;;3.90;99.90;;;;;;5055825;28;20095;-76
2022/02/01 07:57:54;;;;;;;15.88;2.00;;;5.40;99.90;;;;;;5054329;28;20109;-79
2022/02/01 08:00:19;;;;;;;10.68;1.70;;;3.80;99.90;;;;;;5054344;28;20040;-77
2022/02/01 08:02:45;;;;;;;13.63;2.58;;;3.80;99.90;;;;;;5055610;28;20033;-77
2022/02/01 08:05:11;;;;;;;14.95;2.72;;;3.80;99.90;;;;;;5041318;28;20088;-76
2022/02/01 08:07:37;;;;;;;12.85;2.28;;;3.90;99.90;;;;;;5038092;28;20041;-77
2022/02/01 08:10:07;;;;;;;10.82;2.47;;;5.20;99.90;;;;;;5034286;28;20053;-77
2022/02/01 08:17:57;;;;;;;18.88;2.55;;;3.90;99.90;;;;;;5038598;28;20035;-76
2022/02/01 08:20:30;;;;;;;11.32;1.98;;;5.20;99.90;;;;;;5046339;28;20048;-76
2022/02/01 08:25:25;;;;;;;11.13;2.00;;;5.20;99.90;;;;;;5054466;28;20025;-76
2022/02/01 08:27:55;;;;;;;15.15;1.98;;;4.00;99.90;;;;;;5048837;28;20024;-75
2022/02/01 08:30:22;;;;;;;10.18;2.38;;;4.70;99.90;;;;;;5036346;28;20097;-77
2022/02/01 08:32:48;;;;;;;7.80;1.83;;;4.00;99.90;;;;;;5054615;28;20055;-77
2022/02/01 08:35:14;;;;;;;5.47;1.75;;;3.90;99.90;;;;;;5041243;28;20029;-76
2022/02/01 08:37:40;;;;;;;14.60;2.20;;;4.00;99.90;;;;;;5036259;28;20040;-76
2022/02/01 08:40:08;;;;;;;7.05;1.85;;;5.50;99.90;;;;;;5053997;28;20041;-76
2022/02/01 08:42:34;;;;;;;10.50;2.00;;;4.10;99.90;;;;;;5054688;28;20025;-76
2022/02/01 08:45:00;;;;;;;7.63;2.45;;;4.10;99.90;;;;;;5054807;28;20363;-77
2022/02/01 08:47:25;;;;;;;11.70;2.35;;;4.20;99.90;;;;;;5054249;28;20048;-77
2022/02/01 08:49:51;;;;;;;8.63;1.83;;;4.20;99.90;;;;;;5053568;28;20055;-77
2022/02/01 08:52:34;;;;;;;11.52;2.45;;;4.20;99.90;;;;;;5054780;28;20021;-77
2022/02/01 08:55:01;;;;;;;15.88;3.38;;;4.30;99.90;;;;;;5054586;28;20100;-77
2022/02/01 08:57:31;;;;;;;9.13;2.10;;;4.40;99.90;;;;;;5054087;28;20115;-77
2022/02/01 09:00:04;;;;;;;6.78;2.15;;;5.20;99.90;;;;;;5053904;28;20056;-78
2022/02/01 09:02:30;;;;;;;11.23;1.73;;;4.40;99.90;;;;;;5054275;28;20063;-77
2022/02/01 09:04:56;;;;;;;15.25;2.08;;;4.40;99.90;;;;;;5041610;28;20061;-76
2022/02/01 09:07:23;;;;;;;13.88;2.72;;;5.20;99.90;;;;;;5034412;28;20025;-77
2022/02/01 09:09:49;;;;;;;13.18;2.20;;;4.50;99.90;;;;;;5053152;28;20100;-76
2022/02/01 09:12:16;;;;;;;11.85;1.65;;;5.90;99.90;;;;;;5053895;28;20489;-77
2022/02/01 09:14:44;;;;;;;12.57;2.05;;;4.60;99.90;;;;;;5053949;28;20029;-76
2022/02/01 09:17:10;;;;;;;12.38;2.28;;;4.70;99.90;;;;;;5054138;28;20079;-76
2022/02/01 09:19:35;;;;;;;7.45;1.52;;;4.60;99.90;;;;;;5035447;28;20378;-76
2022/02/01 09:22:05;;;;;;;9.15;2.15;;;4.70;99.90;;;;;;5051372;28;20033;-77
2022/02/01 09:24:31;;;;;;;9.93;1.70;;;4.60;99.90;;;;;;5054286;28;20116;-76
2022/02/01 09:26:57;;;;;;;11.43;1.88;;;4.50;99.90;;;;;;5054052;28;20113;-76
2022/02/01 09:29:23;;;;;;;15.35;2.20;;;4.60;99.90;;;;;;5053552;28;20025;-76
2022/02/01 09:31:50;;;;;;;9.02;1.98;;;4.60;99.90;;;;;;5053729;28;20025;-76
2022/02/01 09:34:16;;;;;;;8.02;1.48;;;4.70;99.90;;;;;;5053973;28;20037;-76
2022/02/01 09:36:42;;;;;;;13.23;2.08;;;4.90;99.90;;;;;;5048759;28;20029;-77
2022/02/01 09:39:09;;;;;;;11.95;1.60;;;4.60;99.90;;;;;;5030777;28;20087;-76
2022/02/01 09:41:39;;;;;;;10.05;2.03;;;4.70;99.90;;;;;;5046621;28;20064;-77
2022/02/01 09:44:06;;;;;;;8.63;2.03;;;6.30;99.90;;;;;;5050025;28;20025;-75
2022/02/01 09:46:34;;;;;;;9.23;1.77;;;4.60;99.90;;;;;;5049710;28;20033;-76
2022/02/01 09:49:00;;;;;;;15.40;1.92;;;4.70;99.90;;;;;;5049196;28;20021;-78
2022/02/01 09:51:25;;;;;;;13.30;2.38;;;5.00;99.90;;;;;;5049811;28;20582;-75
2022/02/01 09:53:51;;;;;;;13.82;2.67;;;5.10;99.90;;;;;;5049079;28;20051;-75
2022/02/01 09:56:17;;;;;;;11.80;2.13;;;4.70;99.90;;;;;;5050227;28;20108;-76
2022/02/01 09:58:47;;;;;;;9.52;1.90;;;5.00;99.90;;;;;;5048753;28;20529;-76
2022/02/01 10:01:20;;;;;;;8.82;2.00;;;4.80;99.90;;;;;;5042367;28;20026;-76
2022/02/01 10:03:57;;;;;;;10.10;1.85;;;5.10;99.90;;;;;;5033398;28;20096;-77
2022/02/01 10:06:29;;;;;;;11.27;1.63;;;5.20;99.90;;;;;;5033321;28;20049;-77
2022/02/01 10:09:04;;;;;;;6.13;1.92;;;5.20;99.90;;;;;;5032200;28;20026;-76
2022/02/01 10:11:40;;;;;;;9.98;1.95;;;6.00;99.90;;;;;;5034687;28;20108;-77
2022/02/01 10:14:07;;;;;;;10.38;2.75;;;4.90;99.90;;;;;;5035651;28;20021;-77
2022/02/01 10:16:55;;;;;;;11.90;2.70;;;6.10;99.90;;;;;;5036080;28;20034;-75
2022/02/01 10:19:22;;;;;;;10.55;2.70;;;5.00;99.90;;;;;;5036482;28;20567;-77
2022/02/01 10:21:59;;;;;;;12.02;2.03;;;4.90;99.90;;;;;;5046717;28;20037;-79
2022/02/01 10:24:30;;;;;;;9.35;1.70;;;4.90;99.90;;;;;;5053309;28;20544;-76
2022/02/01 10:27:28;;;;;;;15.02;2.10;;;4.90;99.90;;;;;;5053096;28;20029;-76
2022/02/01 10:30:04;;;;;;;9.25;1.73;;;4.90;99.90;;;;;;5020926;28;20116;-77
2022/02/01 10:35:33;;;;;;;10.30;1.98;;;5.00;99.90;;;;;;5029185;28;20045;-77
2022/02/01 10:38:00;;;;;;;5.97;1.17;;;4.70;99.90;;;;;;5052426;28;20478;-76
2022/02/01 10:40:37;;;;;;;13.30;2.55;;;4.50;99.90;;;;;;5051804;28;20108;-77
2022/02/01 10:43:14;;;;;;;11.35;2.15;;;4.60;99.90;;;;;;5051179;28;20119;-76
2022/02/01 10:45:45;;;;;;;7.03;1.25;;;4.80;99.90;;;;;;5052392;28;20112;-78
2022/02/01 10:48:12;;;;;;;9.48;1.58;;;4.70;99.90;;;;;;5052055;28;20020;-76
2022/02/01 10:50:37;;;;;;;9.48;2.10;;;4.80;99.90;;;;;;5051547;28;20017;-76
2022/02/01 10:53:03;;;;;;;6.60;1.65;;;4.70;99.90;;;;;;5052850;28;20047;-76
2022/02/01 10:55:29;;;;;;;6.35;1.65;;;5.00;99.90;;;;;;5052285;28;20032;-76
2022/02/01 10:57:55;;;;;;;9.32;2.00;;;4.80;99.90;;;;;;5049817;28;20565;-76
2022/02/01 11:00:20;;;;;;;7.22;1.50;;;4.70;99.90;;;;;;5052190;28;20074;-77
2022/02/01 11:02:47;;;;;;;8.63;1.90;;;5.10;99.90;;;;;;5052018;28;20540;-80
2022/02/01 11:05:16;;;;;;;6.55;2.15;;;4.70;99.90;;;;;;5052213;28;20031;-77
2022/02/01 11:07:41;;;;;;;8.10;1.80;;;4.30;99.90;;;;;;5052026;28;20468;-77
2022/02/01 11:10:11;;;;;;;7.70;1.42;;;4.30;99.90;;;;;;5050695;28;20032;-77
2022/02/01 11:12:40;;;;;;;11.23;2.13;;;5.10;99.90;;;;;;5052183;28;20511;-76
2022/02/01 11:15:24;;;;;;;13.68;2.28;;;4.20;99.90;;;;;;5051990;28;20055;-77
2022/02/01 11:17:51;;;;;;;8.60;1.90;;;4.20;99.90;;;;;;5051672;28;20451;-77
2022/02/01 11:20:31;;;;;;;9.20;2.45;;;4.10;99.90;;;;;;5050945;28;20048;-80
2022/02/01 11:23:10;;;;;;;12.82;2.28;;;4.50;99.90;;;;;;5031072;28;20129;-76
2022/02/01 11:25:46;;;;;;;10.15;2.08;;;4.20;99.90;;;;;;5031343;28;20040;-75
2022/02/01 11:28:39;;;;;;;9.48;1.80;;;4.50;99.90;;;;;;5040324;28;20047;-75
2022/02/01 11:31:05;;;;;;;10.55;2.22;;;4.50;99.90;;;;;;5051989;28;20032;-78
2022/02/01 11:33:48;;;;;;;5.50;1.30;;;4.50;99.90;;;;;;5052327;28;20020;-77
2022/02/01 11:36:14;;;;;;;8.15;2.00;;;4.50;99.90;;;;;;5052168;28;20029;-77
2022/02/01 11:38:56;;;;;;;8.40;2.33;;;4.50;99.90;;;;;;5050678;28;20021;-77
2022/02/01 11:41:36;;;;;;;6.60;1.37;;;4.40;99.90;;;;;;5051198;28;20061;-78
2022/02/01 11:44:12;;;;;;;4.97;1.52;;;5.50;99.90;;;;;;5051720;28;20021;-77
2022/02/01 11:46:39;;;;;;;7.82;1.13;;;4.50;99.90;;;;;;5049960;28;20040;-79
2022/02/01 11:49:04;;;;;;;7.13;1.42;;;4.40;99.90;;;;;;5050212;28;20067;-78
2022/02/01 11:51:32;;;;;;;8.75;2.58;;;4.40;99.90;;;;;;5050438;28;20029;-77
2022/02/01 11:53:59;;;;;;;9.10;1.73;;;4.50;99.90;;;;;;5051854;28;20451;-77
2022/02/01 11:56:34;;;;;;;10.05;1.35;;;4.60;99.90;;;;;;5049357;28;20104;-77
2022/02/01 11:59:06;;;;;;;8.10;1.02;;;4.40;99.90;;;;;;5035889;28;20014;-77
2022/02/01 12:01:37;;;;;;;4.93;1.25;;;4.90;99.90;;;;;;5051354;28;20017;-78
2022/02/01 12:04:12;;;;;;;3.67;1.20;;;4.50;99.90;;;;;;5051188;28;20049;-78
2022/02/01 12:06:54;;;;;;;5.38;1.35;;;4.60;99.90;;;;;;5051580;28;20021;-78
2022/02/01 12:09:21;;;;;;;12.82;1.00;;;4.60;99.90;;;;;;5043521;28;20072;-77
2022/02/01 12:11:53;;;;;;;5.40;1.20;;;4.60;99.90;;;;;;5051068;28;20405;-78
2022/02/01 12:14:18;;;;;;;9.88;1.48;;;4.60;99.90;;;;;;5051204;28;20121;-78
2022/02/01 12:16:48;;;;;;;4.53;1.45;;;4.50;99.90;;;;;;5051202;28;20064;-78
2022/02/01 12:19:21;;;;;;;10.48;1.75;;;5.80;99.90;;;;;;5041885;28;20032;-78
2022/02/01 12:22:18;;;;;;;6.50;1.20;;;6.00;99.90;;;;;;5051298;28;20072;-78
2022/02/01 12:24:44;;;;;;;7.28;1.48;;;4.20;99.90;;;;;;5051892;28;20124;-78
2022/02/01 12:27:10;;;;;;;4.97;1.30;;;4.10;99.90;;;;;;5055075;28;20104;-77
2022/02/01 12:29:36;;;;;;;9.55;1.40;;;3.90;99.90;;;;;;5053810;28;20025;-77
2022/02/01 12:32:07;;;;;;;7.82;1.52;;;3.90;99.90;;;;;;5054859;28;20099;-78
2022/02/01 12:34:33;;;;;;;7.93;1.58;;;4.10;99.90;;;;;;5054656;28;20037;-78
2022/02/01 12:36:59;;;;;;;6.60;1.25;;;5.20;99.90;;;;;;5054672;28;20029;-78
2022/02/01 12:39:31;;;;;;;3.63;1.15;;;4.10;99.90;;;;;;5054024;28;20029;-78
2022/02/01 12:42:04;;;;;;;;;;;4.40;99.90;;;;;;5055278;28;20405;-78
2022/02/01 12:46:59;;;;;;;8.02;1.60;;;4.20;99.90;;;;;;5054387;28;19905;-76
2022/02/01 12:49:39;;;;;;;5.63;1.13;;;4.50;99.90;;;;;;5053572;28;20029;-75
2022/02/01 12:52:23;;;;;;;15.82;2.20;;;4.20;99.90;;;;;;5054375;28;20054;-79
2022/02/01 12:55:01;;;;;;;7.85;1.63;;;3.90;99.90;;;;;;5054720;28;20486;-79
2022/02/01 12:57:28;;;;;;;7.68;1.67;;;3.80;99.90;;;;;;5056624;28;20044;-79
2022/02/01 12:59:57;;;;;;;4.30;1.38;;;3.60;99.90;;;;;;5055452;28;20045;-80
2022/02/01 13:02:34;;;;;;;6.75;1.95;;;3.70;99.90;;;;;;5054245;28;20025;-78
2022/02/01 13:05:03;;;;;;;8.50;2.25;;;3.60;99.90;;;;;;5050759;28;20025;-76
2022/02/01 13:13:17;;;;;;;10.15;1.90;;;4.00;99.90;;;;;;5054481;28;20032;-76
2022/02/01 13:16:39;;;;;;;12.48;2.13;;;3.20;99.90;;;;;;5053989;28;20040;-76
2022/02/01 13:21:11;;;;;;;12.25;2.67;;;4.90;99.90;;;;;;5054921;28;20033;-78
2022/02/01 13:23:38;;;;;;;7.72;1.63;;;3.10;99.90;;;;;;5053949;28;20029;-78
2022/02/01 13:26:11;;;;;;;10.50;2.88;;;3.20;99.90;;;;;;5053327;28;20025;-77
2022/02/01 13:28:40;;;;;;;6.40;1.83;;;2.90;99.90;;;;;;5052742;28;20029;-78
2022/02/01 13:31:12;;;;;;;6.85;2.08;;;3.20;99.90;;;;;;5053010;28;20040;-76
2022/02/01 13:33:54;;;;;;;5.35;1.50;;;3.00;99.90;;;;;;5052206;28;20032;-77
2022/02/01 13:36:20;;;;;;;11.23;2.70;;;3.10;99.90;;;;;;5052607;28;20040;-77
2022/02/01 13:38:53;;;;;;;12.65;2.35;;;3.00;99.90;;;;;;5052173;28;20448;-76
2022/02/01 13:41:20;;;;;;;12.48;2.53;;;3.10;99.90;;;;;;5053212;28;20024;-77
2022/02/01 13:43:56;;;;;;;9.45;2.22;;;4.90;99.90;;;;;;5053785;28;20051;-77
2022/02/01 13:46:28;;;;;;;11.05;2.92;;;3.10;99.90;;;;;;5052541;28;20048;-79
2022/02/01 13:49:08;;;;;;;5.57;2.00;;;3.80;99.90;;;;;;5052512;28;20528;-78
2022/02/01 13:51:55;;;;;;;7.45;2.30;;;2.80;99.90;;;;;;5053314;28;20056;-77
2022/02/01 13:54:21;;;;;;;9.07;2.88;;;2.80;99.90;;;;;;5053403;28;20044;-78
2022/02/01 13:56:50;;;;;;;7.78;1.83;;;2.80;99.90;;;;;;5053244;28;20029;-77
2022/02/01 13:59:24;;;;;;;8.60;2.55;;;2.80;99.90;;;;;;5051815;28;20474;-78
2022/02/01 14:02:10;;;;;;;12.05;2.55;;;2.80;99.90;;;;;;5052644;28;20033;-77
2022/02/01 14:04:47;;;;;;;7.78;2.33;;;2.80;99.90;;;;;;5042837;28;20029;-78
2022/02/01 14:07:23;;;;;;;10.63;2.75;;;2.70;99.90;;;;;;5033241;28;20048;-77
2022/02/01 14:36:14;;;;;;;7.20;1.92;;;2.60;99.90;;;;;;5052516;28;20043;-78
2022/02/01 14:39:03;;;;;;;7.03;1.95;;;2.60;99.90;;;;;;5051303;28;20032;-78
2022/02/01 14:46:41;;;;;;;16.95;3.45;;;3.90;99.90;;;;;;5052416;28;20067;-79
2022/02/01 14:49:07;;;;;;;11.38;2.90;;;2.80;99.90;;;;;;5051009;28;20024;-78
2022/02/01 14:51:32;;;;;;;8.45;2.35;;;3.70;99.90;;;;;;5052318;28;20116;-78
2022/02/01 14:53:58;;;;;;;6.68;2.13;;;2.80;99.90;;;;;;5052244;28;20056;-78
2022/02/01 14:56:28;;;;;;;10.23;3.28;;;2.90;99.90;;;;;;5052199;28;20061;-78
2022/02/01 15:12:44;;;;;;;2.60;1.17;;;3.00;99.90;;;;;;5052005;28;20035;-77
2022/02/01 15:15:10;;;;;;;6.63;1.88;;;3.00;99.90;;;;;;5052940;28;20029;-80
2022/02/01 15:17:38;;;;;;;5.28;1.73;;;3.00;99.90;;;;;;5051388;28;20098;-78
2022/02/01 15:20:06;;;;;;;3.85;1.27;;;3.00;99.90;;;;;;5051047;28;20025;-78
2022/02/01 15:22:32;;;;;;;8.82;2.42;;;3.00;99.90;;;;;;5053389;28;20036;-78
2022/02/01 15:24:58;;;;;;;11.60;2.35;;;3.00;99.90;;;;;;5052928;28;20029;-78
2022/02/01 15:27:24;;;;;;;8.60;2.20;;;3.10;99.90;;;;;;5052807;28;20100;-76